Rennes, France

5:13 AM CEST on September 03, 2015 (GMT +0200)
Saint Jacques | | Change Station
CLOSE
Current Station
Airport
Location: Rennes,
Elevation: 121 ft
Nearby Weather Stations

Elev 121 ft 48.07 °N, 1.73 °W | Updated 13 minutes ago

Clear
Clear
46 °F
Feels Like 45 °F
N
4
Wind Variable Wind from West

Today
High -- | Low -- °F
--% Chance of Precip.
Yesterday
High -- | Low -- °F
Precip. -- in
7:26 AM 8:44 PM
Waning Gibbous, 74% visible
Pressure 30.06 in
Visibility -9999.0 miles
Clouds
Windchill 45 °F
Dew Point 46 °F
Humidity 100%
Rainfall 0.00 in
Snow Depth Not available.
UV Not available.
Pollen Not available.
Air Quality Not available.
Flu Activity Not available.
METAR LFRN 030300Z AUTO 26003KT CAVOK 08/08 Q1018
Pressure 30.06 in
Visibility -9999.0 miles
Clouds
Windchill 45 °F
Dew Point 46 °F
Humidity 100%
Rainfall 0.00 in
Snow Depth Not available.
UV Not available.
Pollen Not available.
Air Quality Not available.
Flu Activity Not available.
METAR LFRN 030300Z AUTO 26003KT CAVOK 08/08 Q1018

10-Day Weather Forecast

×

Almanac

Astronomy

Sep. 03, 2015 Rise Set
Actual Time
Civil Twilight
Nautical Twilight
Astronomical Twilight
Moon
Length of Visible Light
Length of Day
Tomorrow will be .
, % of the Moon is Illuminated

Today's Extremes

Country Highs Country Lows

Community

WunderPhotos

Upload Photos

1,851,892 photos uploaded!

WunderBlogs® & News

Nearby

Air Quality

  Air Quality AQ Index Pollutant
Not available.

Snow Depth

Station Depth Elevation

Earthquake Activity

City Distance Mag. Time & Date
Minimum magnitude displayed is 2.5.

Coastal Water Temperatures

Place Temperature

Stations

Nearby Weather Stations

Station Location Temp. Windchill Dew Point Humidity Wind Precip. Elev Updated Type